sensor_id;sensor_type;location;lat;lon;timestamp;P1;durP1;ratioP1;P2;durP2;ratioP2
68247;SDS011;55064;49.636;12.164;2022-08-06T00:02:04;5.95;;;2.28;;
68247;SDS011;55064;49.636;12.164;2022-08-06T00:04:32;5.38;;;2.20;;
68247;SDS011;55064;49.636;12.164;2022-08-06T00:07:01;7.53;;;2.40;;
68247;SDS011;55064;49.636;12.164;2022-08-06T00:09:29;7.30;;;2.05;;
68247;SDS011;55064;49.636;12.164;2022-08-06T00:11:58;8.00;;;2.47;;
68247;SDS011;55064;49.636;12.164;2022-08-06T00:14:31;5.93;;;2.67;;
68247;SDS011;55064;49.636;12.164;2022-08-06T00:16:59;5.78;;;2.72;;
68247;SDS011;55064;49.636;12.164;2022-08-06T00:19:25;6.73;;;2.50;;
68247;SDS011;55064;49.636;12.164;2022-08-06T00:21:51;7.35;;;2.95;;
68247;SDS011;55064;49.636;12.164;2022-08-06T00:24:17;5.60;;;2.50;;
68247;SDS011;55064;49.636;12.164;2022-08-06T00:26:44;7.18;;;2.60;;
68247;SDS011;55064;49.636;12.164;2022-08-06T00:29:09;5.73;;;2.47;;
68247;SDS011;55064;49.636;12.164;2022-08-06T00:31:35;7.90;;;2.13;;
68247;SDS011;55064;49.636;12.164;2022-08-06T00:34:03;7.40;;;2.30;;
68247;SDS011;55064;49.636;12.164;2022-08-06T00:36:32;6.28;;;2.50;;
68247;SDS011;55064;49.636;12.164;2022-08-06T00:38:59;5.68;;;2.28;;
68247;SDS011;55064;49.636;12.164;2022-08-06T00:41:29;6.03;;;2.30;;
68247;SDS011;55064;49.636;12.164;2022-08-06T00:43:55;6.80;;;2.53;;
68247;SDS011;55064;49.636;12.164;2022-08-06T00:46:22;6.63;;;2.60;;
68247;SDS011;55064;49.636;12.164;2022-08-06T00:48:48;8.02;;;2.60;;
68247;SDS011;55064;49.636;12.164;2022-08-06T00:51:18;5.88;;;2.53;;
68247;SDS011;55064;49.636;12.164;2022-08-06T00:53:43;5.87;;;2.53;;
68247;SDS011;55064;49.636;12.164;2022-08-06T00:56:09;7.88;;;3.13;;
68247;SDS011;55064;49.636;12.164;2022-08-06T00:58:35;7.67;;;2.50;;
68247;SDS011;55064;49.636;12.164;2022-08-06T01:01:01;5.88;;;2.60;;
68247;SDS011;55064;49.636;12.164;2022-08-06T01:03:30;7.38;;;3.28;;
68247;SDS011;55064;49.636;12.164;2022-08-06T01:05:57;6.20;;;2.90;;
68247;SDS011;55064;49.636;12.164;2022-08-06T01:08:27;6.50;;;3.10;;
68247;SDS011;55064;49.636;12.164;2022-08-06T01:10:53;7.60;;;3.30;;
68247;SDS011;55064;49.636;12.164;2022-08-06T01:13:18;8.30;;;3.10;;
68247;SDS011;55064;49.636;12.164;2022-08-06T01:15:45;6.03;;;3.20;;
68247;SDS011;55064;49.636;12.164;2022-08-06T01:30:29;6.93;;;3.38;;
68247;SDS011;55064;49.636;12.164;2022-08-06T01:33:01;6.43;;;3.20;;
68247;SDS011;55064;49.636;12.164;2022-08-06T01:35:39;7.82;;;3.42;;
68247;SDS011;55064;49.636;12.164;2022-08-06T01:38:09;7.03;;;3.60;;
68247;SDS011;55064;49.636;12.164;2022-08-06T01:40:39;6.50;;;3.00;;
68247;SDS011;55064;49.636;12.164;2022-08-06T01:43:09;9.10;;;3.15;;
68247;SDS011;55064;49.636;12.164;2022-08-06T01:45:40;6.20;;;3.08;;
68247;SDS011;55064;49.636;12.164;2022-08-06T01:48:12;7.60;;;3.28;;
68247;SDS011;55064;49.636;12.164;2022-08-06T01:50:40;6.25;;;3.17;;
68247;SDS011;55064;49.636;12.164;2022-08-06T01:53:11;6.63;;;2.87;;
68247;SDS011;55064;49.636;12.164;2022-08-06T01:55:43;5.90;;;2.80;;
68247;SDS011;55064;49.636;12.164;2022-08-06T01:58:15;6.75;;;3.10;;
68247;SDS011;55064;49.636;12.164;2022-08-06T02:00:46;7.95;;;2.80;;
68247;SDS011;55064;49.636;12.164;2022-08-06T02:03:26;6.47;;;3.00;;
68247;SDS011;55064;49.636;12.164;2022-08-06T02:05:55;9.03;;;3.10;;
68247;SDS011;55064;49.636;12.164;2022-08-06T02:08:26;8.48;;;3.03;;
68247;SDS011;55064;49.636;12.164;2022-08-06T02:11:02;6.63;;;3.35;;
68247;SDS011;55064;49.636;12.164;2022-08-06T02:13:31;6.32;;;2.85;;
68247;SDS011;55064;49.636;12.164;2022-08-06T02:16:00;7.22;;;3.13;;
68247;SDS011;55064;49.636;12.164;2022-08-06T02:18:28;8.07;;;3.23;;
68247;SDS011;55064;49.636;12.164;2022-08-06T02:20:56;7.57;;;3.47;;
68247;SDS011;55064;49.636;12.164;2022-08-06T02:23:28;6.47;;;3.45;;
68247;SDS011;55064;49.636;12.164;2022-08-06T02:25:54;7.00;;;3.78;;
68247;SDS011;55064;49.636;12.164;2022-08-06T02:28:23;6.87;;;3.70;;
68247;SDS011;55064;49.636;12.164;2022-08-06T02:30:52;6.70;;;3.70;;
68247;SDS011;55064;49.636;12.164;2022-08-06T02:33:22;7.90;;;3.70;;
68247;SDS011;55064;49.636;12.164;2022-08-06T02:36:04;8.10;;;4.00;;
68247;SDS011;55064;49.636;12.164;2022-08-06T02:44:09;10.07;;;5.50;;
68247;SDS011;55064;49.636;12.164;2022-08-06T02:46:43;11.07;;;5.70;;
68247;SDS011;55064;49.636;12.164;2022-08-06T02:49:17;9.15;;;4.68;;
68247;SDS011;55064;49.636;12.164;2022-08-06T02:51:58;10.15;;;5.10;;
68247;SDS011;55064;49.636;12.164;2022-08-06T02:54:40;11.20;;;5.70;;
68247;SDS011;55064;49.636;12.164;2022-08-06T02:57:23;10.90;;;6.32;;
68247;SDS011;55064;49.636;12.164;2022-08-06T02:59:54;11.38;;;5.80;;
68247;SDS011;55064;49.636;12.164;2022-08-06T03:02:28;10.38;;;5.53;;
68247;SDS011;55064;49.636;12.164;2022-08-06T03:04:58;9.90;;;5.65;;
68247;SDS011;55064;49.636;12.164;2022-08-06T03:07:30;9.87;;;5.43;;
68247;SDS011;55064;49.636;12.164;2022-08-06T03:09:57;12.15;;;5.97;;
68247;SDS011;55064;49.636;12.164;2022-08-06T03:12:24;9.82;;;5.80;;
68247;SDS011;55064;49.636;12.164;2022-08-06T03:14:51;11.73;;;6.15;;
68247;SDS011;55064;49.636;12.164;2022-08-06T03:17:20;10.90;;;5.68;;
68247;SDS011;55064;49.636;12.164;2022-08-06T03:19:47;10.50;;;5.57;;
68247;SDS011;55064;49.636;12.164;2022-08-06T03:22:16;9.98;;;5.47;;
68247;SDS011;55064;49.636;12.164;2022-08-06T03:24:42;10.38;;;5.63;;
68247;SDS011;55064;49.636;12.164;2022-08-06T03:27:15;12.63;;;6.45;;
68247;SDS011;55064;49.636;12.164;2022-08-06T03:29:42;9.10;;;5.43;;
68247;SDS011;55064;49.636;12.164;2022-08-06T03:32:09;9.80;;;5.70;;
68247;SDS011;55064;49.636;12.164;2022-08-06T03:34:37;9.98;;;5.55;;
68247;SDS011;55064;49.636;12.164;2022-08-06T03:37:04;10.52;;;5.60;;
68247;SDS011;55064;49.636;12.164;2022-08-06T03:39:32;10.90;;;5.82;;
68247;SDS011;55064;49.636;12.164;2022-08-06T03:42:01;9.65;;;5.60;;
68247;SDS011;55064;49.636;12.164;2022-08-06T03:44:30;12.67;;;5.77;;
68247;SDS011;55064;49.636;12.164;2022-08-06T03:46:57;11.27;;;6.05;;
68247;SDS011;55064;49.636;12.164;2022-08-06T03:49:43;15.35;;;6.50;;
68247;SDS011;55064;49.636;12.164;2022-08-06T03:52:23;11.27;;;6.25;;
68247;SDS011;55064;49.636;12.164;2022-08-06T03:54:58;11.70;;;6.40;;
68247;SDS011;55064;49.636;12.164;2022-08-06T03:57:32;13.15;;;6.85;;
68247;SDS011;55064;49.636;12.164;2022-08-06T04:00:00;12.15;;;6.63;;
68247;SDS011;55064;49.636;12.164;2022-08-06T04:02:30;11.75;;;6.72;;
68247;SDS011;55064;49.636;12.164;2022-08-06T04:05:01;12.25;;;7.50;;
68247;SDS011;55064;49.636;12.164;2022-08-06T04:07:27;13.83;;;7.20;;
68247;SDS011;55064;49.636;12.164;2022-08-06T04:09:54;11.98;;;6.80;;
68247;SDS011;55064;49.636;12.164;2022-08-06T04:12:22;14.70;;;7.53;;
68247;SDS011;55064;49.636;12.164;2022-08-06T04:14:49;11.87;;;7.47;;
68247;SDS011;55064;49.636;12.164;2022-08-06T04:17:15;12.85;;;6.93;;
68247;SDS011;55064;49.636;12.164;2022-08-06T04:19:44;14.82;;;8.18;;
68247;SDS011;55064;49.636;12.164;2022-08-06T04:22:14;13.25;;;7.57;;
68247;SDS011;55064;49.636;12.164;2022-08-06T04:24:40;15.10;;;8.40;;
68247;SDS011;55064;49.636;12.164;2022-08-06T04:27:05;14.50;;;8.10;;
68247;SDS011;55064;49.636;12.164;2022-08-06T04:29:35;15.80;;;9.18;;
68247;SDS011;55064;49.636;12.164;2022-08-06T04:32:02;16.63;;;8.75;;
68247;SDS011;55064;49.636;12.164;2022-08-06T04:34:31;13.82;;;8.25;;
68247;SDS011;55064;49.636;12.164;2022-08-06T04:36:59;13.93;;;8.48;;
68247;SDS011;55064;49.636;12.164;2022-08-06T04:39:26;14.47;;;8.23;;
68247;SDS011;55064;49.636;12.164;2022-08-06T04:41:55;15.65;;;8.68;;
68247;SDS011;55064;49.636;12.164;2022-08-06T04:44:23;16.02;;;8.85;;
68247;SDS011;55064;49.636;12.164;2022-08-06T04:46:52;14.93;;;9.48;;
68247;SDS011;55064;49.636;12.164;2022-08-06T04:49:19;14.63;;;8.93;;
68247;SDS011;55064;49.636;12.164;2022-08-06T04:51:45;12.00;;;7.77;;
68247;SDS011;55064;49.636;12.164;2022-08-06T04:54:12;11.27;;;6.40;;
68247;SDS011;55064;49.636;12.164;2022-08-06T04:56:43;10.00;;;5.90;;
68247;SDS011;55064;49.636;12.164;2022-08-06T04:59:14;9.40;;;5.35;;
68247;SDS011;55064;49.636;12.164;2022-08-06T05:01:44;9.02;;;4.55;;
68247;SDS011;55064;49.636;12.164;2022-08-06T05:04:14;9.50;;;4.78;;
68247;SDS011;55064;49.636;12.164;2022-08-06T05:06:52;9.48;;;5.53;;
68247;SDS011;55064;49.636;12.164;2022-08-06T05:09:25;11.77;;;5.50;;
68247;SDS011;55064;49.636;12.164;2022-08-06T05:11:59;11.93;;;5.25;;
68247;SDS011;55064;49.636;12.164;2022-08-06T05:17:17;11.10;;;5.43;;
68247;SDS011;55064;49.636;12.164;2022-08-06T05:19:55;8.85;;;5.00;;
68247;SDS011;55064;49.636;12.164;2022-08-06T05:22:23;7.97;;;4.60;;
68247;SDS011;55064;49.636;12.164;2022-08-06T05:24:50;7.55;;;4.22;;
68247;SDS011;55064;49.636;12.164;2022-08-06T05:27:16;6.45;;;3.38;;
68247;SDS011;55064;49.636;12.164;2022-08-06T05:29:44;9.30;;;3.20;;
68247;SDS011;55064;49.636;12.164;2022-08-06T05:32:10;6.80;;;3.28;;
68247;SDS011;55064;49.636;12.164;2022-08-06T05:34:37;5.75;;;2.17;;
68247;SDS011;55064;49.636;12.164;2022-08-06T05:37:05;5.97;;;2.60;;
68247;SDS011;55064;49.636;12.164;2022-08-06T05:39:33;5.27;;;2.50;;
68247;SDS011;55064;49.636;12.164;2022-08-06T05:41:58;7.10;;;2.30;;
68247;SDS011;55064;49.636;12.164;2022-08-06T05:44:26;4.70;;;2.10;;
68247;SDS011;55064;49.636;12.164;2022-08-06T05:46:56;5.32;;;2.00;;
68247;SDS011;55064;49.636;12.164;2022-08-06T05:49:33;7.18;;;2.20;;
68247;SDS011;55064;49.636;12.164;2022-08-06T05:52:13;5.50;;;1.80;;
68247;SDS011;55064;49.636;12.164;2022-08-06T06:00:06;4.88;;;1.88;;
68247;SDS011;55064;49.636;12.164;2022-08-06T06:02:39;6.55;;;2.10;;
68247;SDS011;55064;49.636;12.164;2022-08-06T06:05:09;4.43;;;1.87;;
68247;SDS011;55064;49.636;12.164;2022-08-06T06:07:36;6.03;;;2.10;;
68247;SDS011;55064;49.636;12.164;2022-08-06T06:10:03;6.22;;;2.00;;
68247;SDS011;55064;49.636;12.164;2022-08-06T06:12:33;6.43;;;1.90;;
68247;SDS011;55064;49.636;12.164;2022-08-06T06:15:02;6.32;;;1.98;;
68247;SDS011;55064;49.636;12.164;2022-08-06T06:26:03;5.55;;;2.00;;
68247;SDS011;55064;49.636;12.164;2022-08-06T06:39:48;5.57;;;2.28;;
68247;SDS011;55064;49.636;12.164;2022-08-06T06:42:23;7.28;;;2.20;;
68247;SDS011;55064;49.636;12.164;2022-08-06T06:50:27;6.10;;;2.05;;
68247;SDS011;55064;49.636;12.164;2022-08-06T06:53:00;4.55;;;1.80;;
68247;SDS011;55064;49.636;12.164;2022-08-06T06:58:04;5.23;;;2.07;;
68247;SDS011;55064;49.636;12.164;2022-08-06T07:00:35;5.67;;;1.90;;
68247;SDS011;55064;49.636;12.164;2022-08-06T07:03:05;5.50;;;1.58;;
68247;SDS011;55064;49.636;12.164;2022-08-06T07:05:34;4.63;;;1.70;;
68247;SDS011;55064;49.636;12.164;2022-08-06T07:08:02;15.90;;;8.32;;
68247;SDS011;55064;49.636;12.164;2022-08-06T07:10:29;4.38;;;1.70;;
68247;SDS011;55064;49.636;12.164;2022-08-06T07:12:56;4.37;;;1.60;;
68247;SDS011;55064;49.636;12.164;2022-08-06T07:15:22;5.40;;;1.75;;
68247;SDS011;55064;49.636;12.164;2022-08-06T07:17:51;4.60;;;1.70;;
68247;SDS011;55064;49.636;12.164;2022-08-06T07:20:23;6.10;;;1.80;;
68247;SDS011;55064;49.636;12.164;2022-08-06T07:22:54;4.50;;;1.45;;
68247;SDS011;55064;49.636;12.164;2022-08-06T07:25:24;10.37;;;1.60;;
68247;SDS011;55064;49.636;12.164;2022-08-06T07:27:50;4.85;;;1.52;;
68247;SDS011;55064;49.636;12.164;2022-08-06T07:30:20;5.72;;;1.70;;
68247;SDS011;55064;49.636;12.164;2022-08-06T07:32:47;3.80;;;1.30;;
68247;SDS011;55064;49.636;12.164;2022-08-06T07:35:16;4.22;;;1.50;;
68247;SDS011;55064;49.636;12.164;2022-08-06T07:38:02;4.30;;;1.30;;
68247;SDS011;55064;49.636;12.164;2022-08-06T07:40:35;4.82;;;1.38;;
68247;SDS011;55064;49.636;12.164;2022-08-06T07:43:18;4.20;;;1.40;;
68247;SDS011;55064;49.636;12.164;2022-08-06T07:45:49;3.50;;;1.20;;
68247;SDS011;55064;49.636;12.164;2022-08-06T07:48:16;5.35;;;1.25;;
68247;SDS011;55064;49.636;12.164;2022-08-06T07:50:47;3.87;;;1.43;;
68247;SDS011;55064;49.636;12.164;2022-08-06T07:53:16;4.82;;;1.42;;
68247;SDS011;55064;49.636;12.164;2022-08-06T07:55:48;3.92;;;1.30;;
68247;SDS011;55064;49.636;12.164;2022-08-06T07:58:16;4.10;;;1.15;;
68247;SDS011;55064;49.636;12.164;2022-08-06T08:00:45;3.83;;;1.45;;
68247;SDS011;55064;49.636;12.164;2022-08-06T08:03:13;3.13;;;1.13;;
68247;SDS011;55064;49.636;12.164;2022-08-06T08:06:01;3.47;;;1.20;;
68247;SDS011;55064;49.636;12.164;2022-08-06T08:08:47;3.80;;;1.40;;
68247;SDS011;55064;49.636;12.164;2022-08-06T08:11:18;3.83;;;1.40;;
68247;SDS011;55064;49.636;12.164;2022-08-06T08:13:45;3.30;;;1.10;;
68247;SDS011;55064;49.636;12.164;2022-08-06T08:16:13;3.83;;;1.10;;
68247;SDS011;55064;49.636;12.164;2022-08-06T08:18:40;3.53;;;1.50;;
68247;SDS011;55064;49.636;12.164;2022-08-06T08:21:05;3.70;;;1.27;;
68247;SDS011;55064;49.636;12.164;2022-08-06T08:23:31;3.70;;;1.20;;
68247;SDS011;55064;49.636;12.164;2022-08-06T08:25:59;3.72;;;1.10;;
68247;SDS011;55064;49.636;12.164;2022-08-06T08:28:26;4.23;;;1.27;;
68247;SDS011;55064;49.636;12.164;2022-08-06T08:30:51;2.55;;;0.90;;
68247;SDS011;55064;49.636;12.164;2022-08-06T08:33:17;4.17;;;1.30;;
68247;SDS011;55064;49.636;12.164;2022-08-06T08:35:45;3.60;;;1.00;;
68247;SDS011;55064;49.636;12.164;2022-08-06T08:38:13;4.95;;;1.20;;
68247;SDS011;55064;49.636;12.164;2022-08-06T08:40:41;4.87;;;1.10;;
68247;SDS011;55064;49.636;12.164;2022-08-06T08:43:11;3.30;;;1.00;;
68247;SDS011;55064;49.636;12.164;2022-08-06T08:45:42;4.07;;;1.30;;
68247;SDS011;55064;49.636;12.164;2022-08-06T08:48:11;3.20;;;1.42;;
68247;SDS011;55064;49.636;12.164;2022-08-06T08:50:40;5.20;;;1.20;;
68247;SDS011;55064;49.636;12.164;2022-08-06T08:53:09;2.70;;;0.87;;
68247;SDS011;55064;49.636;12.164;2022-08-06T08:55:40;4.20;;;1.10;;
68247;SDS011;55064;49.636;12.164;2022-08-06T08:58:06;3.88;;;1.20;;
68247;SDS011;55064;49.636;12.164;2022-08-06T09:00:32;3.45;;;1.10;;
68247;SDS011;55064;49.636;12.164;2022-08-06T09:02:59;3.13;;;0.98;;
68247;SDS011;55064;49.636;12.164;2022-08-06T09:05:27;4.00;;;1.03;;
68247;SDS011;55064;49.636;12.164;2022-08-06T09:07:56;3.50;;;1.02;;
68247;SDS011;55064;49.636;12.164;2022-08-06T09:10:22;2.80;;;0.90;;
68247;SDS011;55064;49.636;12.164;2022-08-06T09:12:49;3.63;;;1.05;;
68247;SDS011;55064;49.636;12.164;2022-08-06T09:15:15;3.80;;;1.00;;
68247;SDS011;55064;49.636;12.164;2022-08-06T09:17:41;5.20;;;0.90;;
68247;SDS011;55064;49.636;12.164;2022-08-06T09:20:19;2.85;;;1.10;;
68247;SDS011;55064;49.636;12.164;2022-08-06T09:22:44;4.40;;;1.27;;
68247;SDS011;55064;49.636;12.164;2022-08-06T09:31:03;3.42;;;1.27;;
68247;SDS011;55064;49.636;12.164;2022-08-06T09:33:30;3.40;;;1.00;;
68247;SDS011;55064;49.636;12.164;2022-08-06T09:35:57;3.10;;;0.93;;
68247;SDS011;55064;49.636;12.164;2022-08-06T09:38:27;4.33;;;1.30;;
68247;SDS011;55064;49.636;12.164;2022-08-06T09:41:06;3.30;;;1.10;;
68247;SDS011;55064;49.636;12.164;2022-08-06T09:43:34;2.70;;;0.90;;
68247;SDS011;55064;49.636;12.164;2022-08-06T09:46:00;2.65;;;0.98;;
68247;SDS011;55064;49.636;12.164;2022-08-06T09:48:25;4.13;;;1.10;;
68247;SDS011;55064;49.636;12.164;2022-08-06T09:50:55;2.80;;;1.03;;
68247;SDS011;55064;49.636;12.164;2022-08-06T09:53:21;3.35;;;1.08;;
68247;SDS011;55064;49.636;12.164;2022-08-06T09:55:49;2.78;;;1.00;;
68247;SDS011;55064;49.636;12.164;2022-08-06T10:00:53;4.50;;;1.30;;
68247;SDS011;55064;49.636;12.164;2022-08-06T10:03:18;2.45;;;0.90;;
68247;SDS011;55064;49.636;12.164;2022-08-06T10:05:44;2.93;;;1.03;;
68247;SDS011;55064;49.636;12.164;2022-08-06T10:08:13;4.77;;;1.20;;
68247;SDS011;55064;49.636;12.164;2022-08-06T10:10:46;4.10;;;1.20;;
68247;SDS011;55064;49.636;12.164;2022-08-06T10:13:22;3.17;;;1.10;;
68247;SDS011;55064;49.636;12.164;2022-08-06T10:15:54;4.50;;;1.00;;
68247;SDS011;55064;49.636;12.164;2022-08-06T10:18:34;4.23;;;1.13;;
68247;SDS011;55064;49.636;12.164;2022-08-06T10:21:14;3.30;;;1.10;;
68247;SDS011;55064;49.636;12.164;2022-08-06T10:23:47;5.82;;;1.10;;
68247;SDS011;55064;49.636;12.164;2022-08-06T10:26:16;3.33;;;1.30;;
68247;SDS011;55064;49.636;12.164;2022-08-06T10:28:44;2.97;;;0.98;;
68247;SDS011;55064;49.636;12.164;2022-08-06T10:31:12;2.83;;;0.93;;
68247;SDS011;55064;49.636;12.164;2022-08-06T10:36:43;5.18;;;1.27;;
68247;SDS011;55064;49.636;12.164;2022-08-06T10:39:10;3.35;;;1.20;;
68247;SDS011;55064;49.636;12.164;2022-08-06T10:41:43;3.72;;;1.35;;
68247;SDS011;55064;49.636;12.164;2022-08-06T10:44:11;4.70;;;1.27;;
68247;SDS011;55064;49.636;12.164;2022-08-06T10:46:39;3.15;;;1.10;;
68247;SDS011;55064;49.636;12.164;2022-08-06T10:49:05;3.42;;;1.20;;
68247;SDS011;55064;49.636;12.164;2022-08-06T10:51:36;3.53;;;1.30;;
68247;SDS011;55064;49.636;12.164;2022-08-06T10:54:04;2.73;;;1.10;;
68247;SDS011;55064;49.636;12.164;2022-08-06T10:56:29;3.70;;;1.10;;
68247;SDS011;55064;49.636;12.164;2022-08-06T10:59:00;4.20;;;1.20;;
68247;SDS011;55064;49.636;12.164;2022-08-06T11:07:06;3.07;;;1.00;;
68247;SDS011;55064;49.636;12.164;2022-08-06T11:12:50;3.58;;;1.20;;
68247;SDS011;55064;49.636;12.164;2022-08-06T11:15:40;5.68;;;1.15;;
68247;SDS011;55064;49.636;12.164;2022-08-06T11:18:09;3.40;;;1.20;;
68247;SDS011;55064;49.636;12.164;2022-08-06T11:20:37;2.93;;;1.20;;
68247;SDS011;55064;49.636;12.164;2022-08-06T11:28:07;3.25;;;1.20;;
68247;SDS011;55064;49.636;12.164;2022-08-06T11:33:12;3.80;;;1.10;;
68247;SDS011;55064;49.636;12.164;2022-08-06T11:38:10;3.80;;;1.40;;
68247;SDS011;55064;49.636;12.164;2022-08-06T11:59:35;3.70;;;1.40;;
68247;SDS011;55064;49.636;12.164;2022-08-06T12:07:40;3.40;;;1.30;;
68247;SDS011;55064;49.636;12.164;2022-08-06T12:10:13;4.20;;;1.40;;
68247;SDS011;55064;49.636;12.164;2022-08-06T12:12:45;3.25;;;1.20;;
68247;SDS011;55064;49.636;12.164;2022-08-06T12:17:37;3.60;;;1.50;;
68247;SDS011;55064;49.636;12.164;2022-08-06T12:20:54;3.33;;;1.45;;
68247;SDS011;55064;49.636;12.164;2022-08-06T12:23:15;4.20;;;1.43;;
68247;SDS011;55064;49.636;12.164;2022-08-06T12:25:43;4.18;;;1.30;;
68247;SDS011;55064;49.636;12.164;2022-08-06T12:28:15;2.92;;;1.30;;
68247;SDS011;55064;49.636;12.164;2022-08-06T12:33:19;3.38;;;1.20;;
68247;SDS011;55064;49.636;12.164;2022-08-06T12:35:53;3.83;;;1.40;;
68247;SDS011;55064;49.636;12.164;2022-08-06T12:38:28;3.28;;;1.20;;
68247;SDS011;55064;49.636;12.164;2022-08-06T12:41:01;3.85;;;1.20;;
68247;SDS011;55064;49.636;12.164;2022-08-06T12:43:30;3.35;;;1.30;;
68247;SDS011;55064;49.636;12.164;2022-08-06T12:45:59;4.25;;;1.30;;
68247;SDS011;55064;49.636;12.164;2022-08-06T12:48:29;3.70;;;1.40;;
68247;SDS011;55064;49.636;12.164;2022-08-06T12:53:28;3.20;;;1.30;;
68247;SDS011;55064;49.636;12.164;2022-08-06T12:55:59;2.67;;;1.10;;
68247;SDS011;55064;49.636;12.164;2022-08-06T12:58:33;3.10;;;1.30;;
68247;SDS011;55064;49.636;12.164;2022-08-06T13:01:03;3.75;;;1.20;;
68247;SDS011;55064;49.636;12.164;2022-08-06T13:03:32;3.88;;;1.30;;
68247;SDS011;55064;49.636;12.164;2022-08-06T13:06:02;3.63;;;1.25;;
68247;SDS011;55064;49.636;12.164;2022-08-06T13:08:31;5.35;;;1.17;;
68247;SDS011;55064;49.636;12.164;2022-08-06T13:10:57;3.40;;;1.20;;
68247;SDS011;55064;49.636;12.164;2022-08-06T13:13:42;3.03;;;1.10;;
68247;SDS011;55064;49.636;12.164;2022-08-06T13:16:14;4.40;;;1.38;;
68247;SDS011;55064;49.636;12.164;2022-08-06T13:18:43;3.63;;;1.20;;
68247;SDS011;55064;49.636;12.164;2022-08-06T13:21:29;4.65;;;1.10;;
68247;SDS011;55064;49.636;12.164;2022-08-06T13:23:54;5.03;;;1.27;;
68247;SDS011;55064;49.636;12.164;2022-08-06T13:29:03;3.20;;;1.27;;
68247;SDS011;55064;49.636;12.164;2022-08-06T13:31:32;3.45;;;1.20;;
68247;SDS011;55064;49.636;12.164;2022-08-06T13:34:03;3.50;;;1.40;;
68247;SDS011;55064;49.636;12.164;2022-08-06T13:36:32;3.85;;;1.25;;
68247;SDS011;55064;49.636;12.164;2022-08-06T13:39:23;3.05;;;1.20;;
68247;SDS011;55064;49.636;12.164;2022-08-06T13:42:00;2.73;;;1.03;;
68247;SDS011;55064;49.636;12.164;2022-08-06T13:44:29;3.10;;;1.10;;
68247;SDS011;55064;49.636;12.164;2022-08-06T13:47:07;2.97;;;1.23;;
68247;SDS011;55064;49.636;12.164;2022-08-06T13:49:44;3.63;;;1.27;;
68247;SDS011;55064;49.636;12.164;2022-08-06T13:52:09;3.60;;;1.23;;
68247;SDS011;55064;49.636;12.164;2022-08-06T13:54:36;2.70;;;1.10;;
68247;SDS011;55064;49.636;12.164;2022-08-06T13:57:02;3.55;;;1.30;;
68247;SDS011;55064;49.636;12.164;2022-08-06T13:59:32;2.83;;;1.10;;
68247;SDS011;55064;49.636;12.164;2022-08-06T14:02:02;2.97;;;1.15;;
68247;SDS011;55064;49.636;12.164;2022-08-06T14:04:30;2.50;;;1.00;;
68247;SDS011;55064;49.636;12.164;2022-08-06T14:07:00;2.75;;;1.17;;
68247;SDS011;55064;49.636;12.164;2022-08-06T14:09:28;5.10;;;1.27;;
68247;SDS011;55064;49.636;12.164;2022-08-06T14:11:57;3.83;;;1.23;;
68247;SDS011;55064;49.636;12.164;2022-08-06T14:14:28;3.92;;;1.20;;
68247;SDS011;55064;49.636;12.164;2022-08-06T14:16:54;3.60;;;1.10;;
68247;SDS011;55064;49.636;12.164;2022-08-06T14:19:23;2.85;;;1.10;;
68247;SDS011;55064;49.636;12.164;2022-08-06T14:21:51;3.25;;;1.08;;
68247;SDS011;55064;49.636;12.164;2022-08-06T14:24:17;2.80;;;1.20;;
68247;SDS011;55064;49.636;12.164;2022-08-06T14:26:42;3.43;;;1.40;;
68247;SDS011;55064;49.636;12.164;2022-08-06T14:29:10;3.10;;;1.10;;
68247;SDS011;55064;49.636;12.164;2022-08-06T14:31:39;2.90;;;1.20;;
68247;SDS011;55064;49.636;12.164;2022-08-06T14:34:06;2.77;;;1.20;;
68247;SDS011;55064;49.636;12.164;2022-08-06T14:36:32;3.30;;;1.35;;
68247;SDS011;55064;49.636;12.164;2022-08-06T14:38:57;3.37;;;1.20;;
68247;SDS011;55064;49.636;12.164;2022-08-06T14:41:25;3.83;;;1.33;;
68247;SDS011;55064;49.636;12.164;2022-08-06T14:44:12;3.40;;;1.27;;
68247;SDS011;55064;49.636;12.164;2022-08-06T14:46:56;4.03;;;1.40;;
68247;SDS011;55064;49.636;12.164;2022-08-06T14:49:21;3.33;;;1.20;;
68247;SDS011;55064;49.636;12.164;2022-08-06T14:51:47;3.20;;;1.30;;
68247;SDS011;55064;49.636;12.164;2022-08-06T14:54:12;3.50;;;1.10;;
68247;SDS011;55064;49.636;12.164;2022-08-06T14:56:41;4.72;;;1.20;;
68247;SDS011;55064;49.636;12.164;2022-08-06T14:59:07;2.83;;;1.00;;
68247;SDS011;55064;49.636;12.164;2022-08-06T15:01:35;3.72;;;1.30;;
68247;SDS011;55064;49.636;12.164;2022-08-06T15:04:03;2.95;;;1.10;;
68247;SDS011;55064;49.636;12.164;2022-08-06T15:06:28;2.53;;;1.07;;
68247;SDS011;55064;49.636;12.164;2022-08-06T15:08:53;3.85;;;0.80;;
68247;SDS011;55064;49.636;12.164;2022-08-06T15:11:19;3.33;;;1.20;;
68247;SDS011;55064;49.636;12.164;2022-08-06T15:13:44;2.63;;;1.00;;
68247;SDS011;55064;49.636;12.164;2022-08-06T15:16:12;2.83;;;1.00;;
68247;SDS011;55064;49.636;12.164;2022-08-06T15:18:38;3.13;;;1.00;;
68247;SDS011;55064;49.636;12.164;2022-08-06T15:21:03;2.72;;;1.08;;
68247;SDS011;55064;49.636;12.164;2022-08-06T15:23:32;3.00;;;1.15;;
68247;SDS011;55064;49.636;12.164;2022-08-06T15:25:58;3.53;;;1.40;;
68247;SDS011;55064;49.636;12.164;2022-08-06T15:28:23;4.28;;;1.15;;
68247;SDS011;55064;49.636;12.164;2022-08-06T15:30:49;2.93;;;1.10;;
68247;SDS011;55064;49.636;12.164;2022-08-06T15:33:14;2.50;;;1.20;;
68247;SDS011;55064;49.636;12.164;2022-08-06T15:35:45;3.00;;;1.10;;
68247;SDS011;55064;49.636;12.164;2022-08-06T15:38:12;3.10;;;1.00;;
68247;SDS011;55064;49.636;12.164;2022-08-06T15:40:41;2.67;;;1.00;;
68247;SDS011;55064;49.636;12.164;2022-08-06T15:43:09;4.30;;;1.10;;
68247;SDS011;55064;49.636;12.164;2022-08-06T15:45:34;3.83;;;1.30;;
68247;SDS011;55064;49.636;12.164;2022-08-06T15:47:59;3.50;;;1.33;;
68247;SDS011;55064;49.636;12.164;2022-08-06T15:50:25;3.63;;;1.03;;
68247;SDS011;55064;49.636;12.164;2022-08-06T15:52:53;4.10;;;1.50;;
68247;SDS011;55064;49.636;12.164;2022-08-06T15:55:20;3.00;;;1.23;;
68247;SDS011;55064;49.636;12.164;2022-08-06T15:57:46;4.95;;;1.35;;
68247;SDS011;55064;49.636;12.164;2022-08-06T16:00:15;4.20;;;1.43;;
68247;SDS011;55064;49.636;12.164;2022-08-06T16:02:41;3.22;;;1.10;;
68247;SDS011;55064;49.636;12.164;2022-08-06T16:05:09;3.13;;;1.13;;
68247;SDS011;55064;49.636;12.164;2022-08-06T16:07:38;3.87;;;1.50;;
68247;SDS011;55064;49.636;12.164;2022-08-06T16:10:06;3.15;;;1.27;;
68247;SDS011;55064;49.636;12.164;2022-08-06T16:12:34;3.45;;;1.00;;
68247;SDS011;55064;49.636;12.164;2022-08-06T16:14:59;2.93;;;1.30;;
68247;SDS011;55064;49.636;12.164;2022-08-06T16:17:25;3.00;;;1.20;;
68247;SDS011;55064;49.636;12.164;2022-08-06T16:19:53;3.90;;;1.20;;
68247;SDS011;55064;49.636;12.164;2022-08-06T16:22:18;2.97;;;1.07;;
68247;SDS011;55064;49.636;12.164;2022-08-06T16:24:44;3.53;;;1.15;;
68247;SDS011;55064;49.636;12.164;2022-08-06T16:27:09;4.07;;;1.23;;
68247;SDS011;55064;49.636;12.164;2022-08-06T16:29:37;3.92;;;1.33;;
68247;SDS011;55064;49.636;12.164;2022-08-06T16:32:02;4.17;;;1.27;;
68247;SDS011;55064;49.636;12.164;2022-08-06T16:34:28;3.60;;;1.40;;
68247;SDS011;55064;49.636;12.164;2022-08-06T16:36:54;3.67;;;1.20;;
68247;SDS011;55064;49.636;12.164;2022-08-06T16:39:20;2.83;;;1.00;;
68247;SDS011;55064;49.636;12.164;2022-08-06T16:41:47;3.17;;;1.20;;
68247;SDS011;55064;49.636;12.164;2022-08-06T16:44:13;3.85;;;1.17;;
68247;SDS011;55064;49.636;12.164;2022-08-06T16:46:38;3.63;;;1.20;;